AGROMETEOROLOŠKI PORTAL

vinorodna pokrajina

Temelj dobrega kmetovanja

Pregled podatkov za lokacijo Kranj - Delavski most DRSI, meteorološka postaja 1

Pregled senzorjev na lokaciji

ID Ime Zadnja
vrednost
Datum in čas
meritve
(lokalni čas)
Tip
senzorja
6300 Zračni tlak (hPa) 967 hPa 30.9.2022 11:00 DRSI
6297 Relativna zračna vlaga (2 m) (% RH) 84 % RH 30.9.2022 11:00 DRSI
6296 Temperatura (2 m) (°C) 14,1 °C 30.9.2022 11:00 DRSI
6299 Smer vetra (2 m) (°) 114 ° 30.9.2022 11:00 DRSI
6298 Hitrost vetra (2 m) (km/h) 4 km/h 30.9.2022 11:00 DRSI

Pregled podatkov zadnjih 24 ur

Zap.
št.
Datum in čas
(lokalni čas)
Kranj - Delavski most DRSI
Zračni
tlak
Relativna
zračna
vlaga
(2
m)
Temperatura
(2
m)
Smer
vetra
(2
m)
Hitrost
vetra
(2
m)
1 30.9.2022 11:00 967,2 84 14,1 113,6 4,2
2 30.9.2022 10:30 966,6 88 13,3 133,1 2,9
3 30.9.2022 10:00 966,3 92 12,7 221,4 1,9
4 30.9.2022 09:30 966,3 96,3 11,9 194,8 3,5
5 30.9.2022 09:00 965,3 98 11,3 105,5 1,9
6 30.9.2022 08:30 965,3 98 10,9 164,5 2,3
7 30.9.2022 08:00 964,4 98 10,8 282,7 3,1
8 30.9.2022 07:30 964 98 10,8 324,7 6,7
9 30.9.2022 07:00 963,4 98 10,9 305,6 5,5
10 30.9.2022 06:30 963,4 98 10,7 308,7 4,4
11 30.9.2022 06:00 963,4 99 10,6 217,4 2
12 30.9.2022 05:30 963,1 99,3 10,4 103,5 2
13 30.9.2022 05:00 962,5 99 10,4 217,3 1,8
14 30.9.2022 04:30 962,5 99,3 10,3 119,6 1,7
15 30.9.2022 04:00 961,8 98,3 10,5 113,8 3,4
16 30.9.2022 03:30 961,5 98,3 10,4 189 2,2
17 30.9.2022 03:00 961,5 99,3 10,4 200,7 1,4
18 30.9.2022 02:30 961,8 98 10,8 317,3 2,5
19 30.9.2022 02:00 961,5 96,7 11 124,4 6,7
20 30.9.2022 01:30 961,8 95,7 10,7 283,7 7
21 30.9.2022 01:00 961,5 96 10,5 354,7 2,2
22 30.9.2022 00:30 961,5 95,3 10,5 148,9 4,1
23 30.9.2022 00:00 961,5 95,3 10,5 124,7 2,4
24 29.9.2022 23:30 961,5 95,7 10,4 125,5 2,4
25 29.9.2022 23:00 961,5 96,3 10,3 158,1 1,9
26 29.9.2022 22:30 961,5 96 10,4 146,6 1,7
27 29.9.2022 22:00 961,5 96,7 10,4 126,9 1,9
28 29.9.2022 21:30 961,5 96,3 10,3 163,9 2,5
29 29.9.2022 21:00 960,5 97,3 10,4 49,1 2,9
30 29.9.2022 20:30 960,5 98 10,6 91 4,4
31 29.9.2022 20:00 961,2 98 10,6 169,6 4,3
32 29.9.2022 19:30 960,2 98 10,5 171,6 5,8
33 29.9.2022 19:00 959,6 98 10,6 75,7 2,4
34 29.9.2022 18:30 959,6 98 10,6 163,8 3,7
35 29.9.2022 18:00 959,6 98,3 10,6 171,7 3,8
36 29.9.2022 17:30 959,9 98,3 10,7 166,9 5,8
37 29.9.2022 17:00 959,6 97,3 11 210,9 4
38 29.9.2022 16:30 959,6 95,7 11,1 163,4 6,8
39 29.9.2022 16:00 959,6 96 11 288,5 6,2
40 29.9.2022 15:30 959,6 96 10,7 168,3 6,8
41 29.9.2022 15:00 959,6 96 10,8 172,2 10
42 29.9.2022 14:30 959,3 96,3 10,9 148,1 9,4
43 29.9.2022 14:00 958,6 96 11,1 132,9 9,8
44 29.9.2022 13:30 958,6 96,3 11,4 100,3 10,8
45 29.9.2022 13:00 958,6 96 11,7 122,2 9,1
46 29.9.2022 12:30 958,6 96,7 12 126 9,2